createdAt,value
2022-08-25T00:01:42.325Z,20.30
2022-08-25T00:04:29.564Z,20.14
2022-08-25T00:07:18.601Z,20.10
2022-08-25T00:10:06.587Z,19.96
2022-08-25T00:12:51.699Z,19.93
2022-08-25T00:15:38.290Z,19.85
2022-08-25T00:18:23.436Z,19.72
2022-08-25T00:21:09.221Z,19.71
2022-08-25T00:23:54.680Z,19.67
2022-08-25T00:26:42.382Z,19.65
2022-08-25T00:29:29.826Z,19.57
2022-08-25T00:32:15.601Z,19.51
2022-08-25T00:35:01.068Z,19.49
2022-08-25T00:37:46.462Z,19.56
2022-08-25T00:40:31.780Z,19.56
2022-08-25T00:43:17.490Z,19.54
2022-08-25T00:46:02.872Z,19.57
2022-08-25T00:48:53.631Z,19.64
2022-08-25T00:51:50.276Z,19.70
2022-08-25T00:54:55.229Z,19.61
2022-08-25T00:57:45.826Z,19.65
2022-08-25T01:00:41.076Z,19.61
2022-08-25T01:03:35.567Z,19.60
2022-08-25T01:06:21.669Z,19.61
2022-08-25T01:09:07.521Z,19.54
2022-08-25T01:11:52.937Z,19.53
2022-08-25T01:14:38.319Z,19.56
2022-08-25T01:17:23.315Z,19.56
2022-08-25T01:20:09.266Z,19.48
2022-08-25T01:22:55.219Z,19.44
2022-08-25T01:25:51.561Z,19.32
2022-08-25T01:28:38.246Z,19.25
2022-08-25T01:31:24.456Z,19.21
2022-08-25T01:34:12.323Z,19.24
2022-08-25T01:36:59.615Z,19.22
2022-08-25T01:39:45.254Z,19.22
2022-08-25T01:43:06.355Z,19.23
2022-08-25T01:45:51.487Z,19.29
2022-08-25T01:48:36.741Z,19.34
2022-08-25T01:51:25.212Z,19.42
2022-08-25T01:54:10.789Z,19.45
2022-08-25T01:56:55.986Z,19.55
2022-08-25T01:59:41.282Z,19.61
2022-08-25T02:02:26.461Z,19.65
2022-08-25T02:05:14.065Z,19.63
2022-08-25T02:07:59.183Z,19.57
2022-08-25T02:10:44.400Z,19.47
2022-08-25T02:13:31.607Z,19.42
2022-08-25T02:16:25.527Z,19.38
2022-08-25T02:19:14.534Z,19.53
2022-08-25T02:22:00.146Z,19.61
2022-08-25T02:24:45.223Z,19.60
2022-08-25T02:27:30.287Z,19.39
2022-08-25T02:30:16.924Z,19.44
2022-08-25T02:33:02.092Z,19.50
2022-08-25T02:35:47.401Z,19.60
2022-08-25T02:38:32.353Z,19.70
2022-08-25T02:41:21.443Z,19.73
2022-08-25T02:44:08.313Z,19.60
2022-08-25T02:46:53.616Z,19.62
2022-08-25T02:49:39.159Z,19.61
2022-08-25T02:52:25.218Z,19.59
2022-08-25T02:55:14.302Z,19.63
2022-08-25T02:57:59.671Z,19.61
2022-08-25T03:00:45.994Z,19.61
2022-08-25T03:03:32.834Z,19.58
2022-08-25T03:06:25.183Z,19.60
2022-08-25T03:09:10.841Z,19.64
2022-08-25T03:11:55.989Z,19.48
2022-08-25T03:14:41.184Z,19.38
2022-08-25T03:17:29.492Z,19.34
2022-08-25T03:20:15.896Z,19.31
2022-08-25T03:23:02.826Z,19.30
2022-08-25T03:26:06.281Z,19.19
2022-08-25T03:28:51.661Z,19.12
2022-08-25T03:31:37.349Z,19.25
2022-08-25T03:34:23.031Z,19.27
2022-08-25T03:37:08.457Z,19.34
2022-08-25T03:39:53.765Z,19.31
2022-08-25T03:42:45.165Z,19.29
2022-08-25T03:45:30.362Z,19.30
2022-08-25T03:48:17.524Z,19.31
2022-08-25T03:51:02.492Z,19.35
2022-08-25T03:53:47.993Z,19.35
2022-08-25T03:56:33.481Z,19.31
2022-08-25T03:59:19.003Z,19.31
2022-08-25T04:02:05.856Z,19.33
2022-08-25T04:04:50.703Z,19.32
2022-08-25T04:07:36.188Z,19.32
2022-08-25T04:10:21.598Z,19.34
2022-08-25T04:13:07.231Z,19.35
2022-08-25T04:15:52.202Z,19.36
2022-08-25T04:18:37.169Z,19.25
2022-08-25T04:21:24.179Z,19.35
2022-08-25T04:24:11.036Z,19.36
2022-08-25T04:26:56.326Z,19.29
2022-08-25T04:29:41.458Z,19.32
2022-08-25T04:32:26.714Z,19.33
2022-08-25T04:35:12.034Z,19.33
2022-08-25T04:37:57.270Z,19.30
2022-08-25T04:40:42.490Z,19.30
2022-08-25T04:43:27.691Z,19.25
2022-08-25T04:46:20.373Z,19.13
2022-08-25T04:49:05.902Z,19.11
2022-08-25T04:51:51.286Z,19.07
2022-08-25T04:54:37.330Z,19.09
2022-08-25T04:57:22.698Z,18.99
2022-08-25T05:00:08.984Z,19.03
2022-08-25T05:02:55.393Z,18.94
2022-08-25T05:05:40.638Z,18.91
2022-08-25T05:08:26.111Z,19.00
2022-08-25T05:11:14.326Z,19.05
2022-08-25T05:14:01.409Z,19.11
2022-08-25T05:16:46.377Z,19.13
2022-08-25T05:19:31.805Z,19.04
2022-08-25T05:22:17.144Z,19.12
2022-08-25T05:25:03.262Z,19.22
2022-08-25T05:27:48.237Z,19.24
2022-08-25T05:30:33.141Z,19.26
2022-08-25T05:33:18.467Z,19.24
2022-08-25T05:36:04.907Z,19.20
2022-08-25T05:38:50.386Z,19.14
2022-08-25T05:41:35.863Z,19.05
2022-08-25T05:44:21.490Z,19.02
2022-08-25T05:47:06.871Z,18.99
2022-08-25T05:49:52.284Z,19.02
2022-08-25T05:52:37.719Z,19.08
2022-08-25T05:55:23.046Z,19.15
2022-08-25T05:58:08.357Z,19.20
2022-08-25T06:00:58.664Z,19.18
2022-08-25T06:03:43.747Z,19.25
2022-08-25T06:06:29.273Z,19.29
2022-08-25T06:09:14.537Z,19.30
2022-08-25T06:11:59.541Z,19.26
2022-08-25T06:14:45.308Z,19.32
2022-08-25T06:17:31.280Z,19.34
2022-08-25T06:20:19.100Z,19.34
2022-08-25T06:23:07.388Z,19.33
2022-08-25T06:25:53.968Z,19.33
2022-08-25T06:28:39.313Z,19.33
2022-08-25T06:31:24.565Z,19.25
2022-08-25T06:34:10.424Z,19.25
2022-08-25T06:36:55.747Z,19.20
2022-08-25T06:39:41.012Z,19.16
2022-08-25T06:42:26.569Z,19.12
2022-08-25T06:45:11.629Z,18.99
2022-08-25T06:47:57.848Z,19.13
2022-08-25T06:50:43.552Z,19.15
2022-08-25T06:53:28.499Z,19.13
2022-08-25T06:56:14.145Z,19.17
2022-08-25T06:59:01.522Z,19.17
2022-08-25T07:01:47.048Z,19.16
2022-08-25T07:04:34.966Z,19.26
2022-08-25T07:07:20.174Z,19.28
2022-08-25T07:10:06.172Z,19.20
2022-08-25T07:12:51.786Z,19.34
2022-08-25T07:15:41.316Z,19.30
2022-08-25T07:18:27.068Z,19.23
2022-08-25T07:21:14.070Z,19.13
2022-08-25T07:24:03.387Z,19.18
2022-08-25T07:26:48.848Z,19.15
2022-08-25T07:29:36.692Z,19.12
2022-08-25T07:32:27.292Z,19.15
2022-08-25T07:35:16.074Z,19.18
2022-08-25T07:38:06.892Z,19.22
2022-08-25T07:41:03.286Z,19.26
2022-08-25T07:43:48.716Z,19.30
2022-08-25T07:46:35.726Z,19.36
2022-08-25T07:49:24.196Z,19.42
2022-08-25T07:52:09.832Z,19.42
2022-08-25T07:54:55.958Z,19.49
2022-08-25T07:57:42.434Z,19.45
2022-08-25T08:00:30.196Z,19.54
2022-08-25T08:03:35.334Z,19.54
2022-08-25T08:06:23.407Z,19.57
2022-08-25T08:09:09.439Z,19.59
2022-08-25T08:11:54.621Z,19.59
2022-08-25T08:14:44.989Z,19.59
2022-08-25T08:17:31.909Z,19.54
2022-08-25T08:20:17.681Z,19.63
2022-08-25T08:23:08.168Z,19.63
2022-08-25T08:25:53.442Z,19.65
2022-08-25T08:28:38.730Z,19.76
2022-08-25T08:31:26.895Z,19.76
2022-08-25T08:34:12.381Z,19.79
2022-08-25T08:36:58.448Z,19.76
2022-08-25T08:39:43.326Z,19.73
2022-08-25T08:42:56.030Z,19.72
2022-08-25T08:45:50.288Z,19.68
2022-08-25T08:48:44.648Z,19.68
2022-08-25T08:51:37.692Z,19.59
2022-08-25T08:54:26.530Z,19.66
2022-08-25T08:57:17.553Z,19.67
2022-08-25T09:00:05.660Z,19.69
2022-08-25T09:02:55.193Z,19.63
2022-08-25T09:05:50.541Z,19.67
2022-08-25T09:08:37.533Z,19.71
2022-08-25T09:11:35.538Z,19.76
2022-08-25T09:14:20.693Z,19.78
2022-08-25T09:17:27.441Z,19.78
2022-08-25T09:20:29.606Z,19.79
2022-08-25T09:23:45.951Z,19.83
2022-08-25T09:26:39.661Z,19.91
2022-08-25T09:29:46.203Z,19.94
2022-08-25T09:32:35.955Z,19.94
2022-08-25T09:35:26.176Z,19.99
2022-08-25T09:38:13.228Z,19.97
2022-08-25T09:41:01.024Z,20.00
2022-08-25T09:43:53.531Z,20.07
2022-08-25T09:46:38.800Z,20.09
2022-08-25T09:49:33.302Z,20.02
2022-08-25T09:52:34.091Z,20.21
2022-08-25T09:55:32.605Z,20.30
2022-08-25T09:58:24.129Z,20.35
2022-08-25T10:01:27.420Z,20.33
2022-08-25T10:04:36.977Z,20.36
2022-08-25T10:07:29.518Z,20.30
2022-08-25T10:10:38.222Z,20.26
2022-08-25T10:13:40.561Z,20.16
2022-08-25T10:16:36.299Z,20.32
2022-08-25T10:19:21.818Z,20.39
2022-08-25T10:22:20.486Z,20.37
2022-08-25T10:25:08.690Z,20.38
2022-08-25T10:27:54.473Z,20.37
2022-08-25T10:31:16.627Z,20.37
2022-08-25T10:34:17.538Z,20.24
2022-08-25T10:37:10.856Z,20.25
2022-08-25T10:40:09.810Z,20.25
2022-08-25T10:43:23.687Z,20.31
2022-08-25T10:46:37.083Z,20.28
2022-08-25T10:49:54.684Z,20.31
2022-08-25T10:53:17.443Z,20.35
2022-08-25T10:56:11.588Z,20.38
2022-08-25T10:59:18.128Z,20.45
2022-08-25T11:02:42.228Z,20.53
2022-08-25T11:05:49.002Z,20.55
2022-08-25T11:08:45.981Z,20.53
2022-08-25T11:11:45.122Z,20.45
2022-08-25T11:14:43.006Z,20.39
2022-08-25T11:17:53.798Z,20.39
2022-08-25T11:20:46.565Z,20.38
2022-08-25T11:23:38.472Z,20.47
2022-08-25T11:26:36.683Z,20.56
2022-08-25T11:29:26.993Z,20.64
2022-08-25T11:32:12.172Z,20.69
2022-08-25T11:35:01.070Z,20.63
2022-08-25T11:38:00.034Z,20.59
2022-08-25T11:41:04.494Z,20.46
2022-08-25T11:44:10.888Z,20.53
2022-08-25T11:47:24.439Z,20.48
2022-08-25T11:50:29.864Z,20.38
2022-08-25T11:53:31.252Z,20.41
2022-08-25T11:56:34.877Z,20.43
2022-08-25T11:59:57.419Z,20.48
2022-08-25T12:02:48.636Z,20.60
2022-08-25T12:06:11.047Z,20.74
2022-08-25T12:09:04.841Z,21.02
2022-08-25T12:11:55.380Z,21.13
2022-08-25T12:14:45.500Z,21.09
2022-08-25T12:17:38.552Z,21.38
2022-08-25T12:20:53.307Z,21.49
2022-08-25T12:24:05.805Z,21.12
2022-08-25T12:26:57.975Z,20.78
2022-08-25T12:29:49.985Z,20.94
2022-08-25T12:33:13.270Z,21.14
2022-08-25T12:36:11.506Z,21.20
2022-08-25T12:39:24.643Z,21.43
2022-08-25T12:42:25.337Z,21.61
2022-08-25T12:45:26.107Z,21.86
2022-08-25T12:48:26.275Z,22.19
2022-08-25T12:51:20.937Z,22.36
2022-08-25T12:54:22.832Z,22.44
2022-08-25T12:57:52.318Z,22.61
2022-08-25T13:01:10.263Z,22.83
2022-08-25T13:04:33.847Z,23.11
2022-08-25T13:07:25.904Z,23.24
2022-08-25T13:10:20.508Z,23.18
2022-08-25T13:13:11.790Z,22.89
2022-08-25T13:16:07.164Z,22.52
2022-08-25T13:18:52.374Z,22.59
2022-08-25T13:21:40.887Z,22.62
2022-08-25T13:24:29.688Z,22.53
2022-08-25T13:27:27.278Z,22.57
2022-08-25T13:30:24.627Z,22.66
2022-08-25T13:33:20.177Z,23.15
2022-08-25T13:36:23.993Z,23.41
2022-08-25T13:39:15.849Z,23.67
2022-08-25T13:42:04.872Z,23.53
2022-08-25T13:44:52.359Z,23.40
2022-08-25T13:47:43.740Z,23.42
2022-08-25T13:50:37.641Z,23.66
2022-08-25T13:53:25.849Z,23.88
2022-08-25T13:56:11.675Z,23.91
2022-08-25T13:59:04.266Z,23.99
2022-08-25T14:01:50.213Z,23.95
2022-08-25T14:04:50.653Z,23.89
2022-08-25T14:07:37.107Z,23.96
2022-08-25T14:10:32.929Z,24.08
2022-08-25T14:13:30.969Z,23.95
2022-08-25T14:16:22.687Z,23.87
2022-08-25T14:19:19.888Z,23.97
2022-08-25T14:22:05.700Z,24.32
2022-08-25T14:24:52.833Z,24.78
2022-08-25T14:28:03.552Z,25.17
2022-08-25T14:31:05.133Z,25.12
2022-08-25T14:34:09.979Z,24.91
2022-08-25T14:36:59.896Z,24.70
2022-08-25T14:39:45.606Z,24.61
2022-08-25T14:42:31.705Z,24.89
2022-08-25T14:45:18.560Z,25.41
2022-08-25T14:48:10.613Z,25.37
2022-08-25T14:50:58.765Z,25.05
2022-08-25T14:53:44.421Z,24.82
2022-08-25T14:56:31.121Z,24.71
2022-08-25T14:59:17.018Z,24.58
2022-08-25T15:02:02.404Z,24.65
2022-08-25T15:04:57.013Z,24.83
2022-08-25T15:08:01.568Z,24.86
2022-08-25T15:10:47.151Z,24.79
2022-08-25T15:13:32.814Z,24.72
2022-08-25T15:16:33.815Z,24.73
2022-08-25T15:19:23.469Z,24.69
2022-08-25T15:22:09.127Z,24.58
2022-08-25T15:24:55.997Z,24.39
2022-08-25T15:27:41.293Z,24.32
2022-08-25T15:30:30.873Z,24.23
2022-08-25T15:33:17.429Z,24.24
2022-08-25T15:36:02.706Z,24.30
2022-08-25T15:38:48.797Z,24.38
2022-08-25T15:41:35.001Z,24.53
2022-08-25T15:44:25.102Z,24.64
2022-08-25T15:47:14.450Z,24.72
2022-08-25T15:50:14.684Z,24.70
2022-08-25T15:53:00.080Z,24.52
2022-08-25T15:55:45.324Z,24.45
2022-08-25T15:58:33.218Z,24.23
2022-08-25T16:01:21.731Z,24.16
2022-08-25T16:04:10.626Z,24.10
2022-08-25T16:06:56.026Z,24.10
2022-08-25T16:09:41.450Z,24.08
2022-08-25T16:12:26.719Z,24.02
2022-08-25T16:15:12.988Z,23.98
2022-08-25T16:18:00.388Z,23.99
2022-08-25T16:20:47.498Z,23.95
2022-08-25T16:23:33.144Z,23.84
2022-08-25T16:26:19.150Z,23.78
2022-08-25T16:29:06.403Z,23.80
2022-08-25T16:31:54.985Z,23.84
2022-08-25T16:34:40.998Z,23.84
2022-08-25T16:37:26.421Z,23.80
2022-08-25T16:40:14.645Z,23.88
2022-08-25T16:42:59.934Z,23.86
2022-08-25T16:45:45.377Z,23.73
2022-08-25T16:48:30.809Z,23.56
2022-08-25T16:51:22.458Z,23.60
2022-08-25T16:54:30.024Z,23.38
2022-08-25T16:57:15.278Z,23.28
2022-08-25T17:00:00.371Z,23.24
2022-08-25T17:02:45.806Z,23.10
2022-08-25T17:05:33.309Z,23.11
2022-08-25T17:08:30.839Z,23.11
2022-08-25T17:11:23.862Z,23.08
2022-08-25T17:14:11.159Z,22.96
2022-08-25T17:16:56.490Z,22.89
2022-08-25T17:19:45.439Z,22.77
2022-08-25T17:22:31.249Z,22.75
2022-08-25T17:25:17.720Z,22.66
2022-08-25T17:28:04.636Z,22.66
2022-08-25T17:30:52.050Z,22.67
2022-08-25T17:33:37.944Z,22.58
2022-08-25T17:36:27.114Z,22.56
2022-08-25T17:39:14.323Z,22.55
2022-08-25T17:41:59.569Z,22.56
2022-08-25T17:44:45.015Z,22.51
2022-08-25T17:47:30.238Z,22.58
2022-08-25T17:50:15.285Z,22.57
2022-08-25T17:53:03.602Z,22.53
2022-08-25T17:55:58.652Z,22.49
2022-08-25T17:58:44.538Z,22.39
2022-08-25T18:01:31.956Z,22.29
2022-08-25T18:04:19.492Z,22.21
2022-08-25T18:07:05.132Z,22.30
2022-08-25T18:09:50.327Z,22.22
2022-08-25T18:12:36.642Z,22.01
2022-08-25T18:15:22.910Z,21.98
2022-08-25T18:18:09.308Z,21.85
2022-08-25T18:20:54.933Z,21.77
2022-08-25T18:23:42.333Z,21.59
2022-08-25T18:26:27.417Z,21.53
2022-08-25T18:29:13.277Z,21.48
2022-08-25T18:32:00.517Z,21.48
2022-08-25T18:34:45.677Z,21.48
2022-08-25T18:37:49.398Z,21.40
2022-08-25T18:40:35.133Z,21.32
2022-08-25T18:43:20.141Z,21.19
2022-08-25T18:46:05.984Z,21.10
2022-08-25T18:48:53.870Z,21.02
2022-08-25T18:51:39.219Z,21.05
2022-08-25T18:54:24.549Z,21.01
2022-08-25T18:57:10.196Z,20.99
2022-08-25T18:59:55.444Z,20.83
2022-08-25T19:02:40.646Z,20.87
2022-08-25T19:05:34.806Z,20.73
2022-08-25T19:08:21.849Z,20.66
2022-08-25T19:11:07.255Z,20.64
2022-08-25T19:13:52.259Z,20.57
2022-08-25T19:16:40.276Z,20.62
2022-08-25T19:19:25.841Z,20.61
2022-08-25T19:22:38.060Z,20.46
2022-08-25T19:25:20.579Z,20.40
2022-08-25T19:28:07.503Z,20.35
2022-08-25T19:30:57.669Z,20.26
2022-08-25T19:33:44.933Z,20.25
2022-08-25T19:36:30.925Z,20.23
2022-08-25T19:39:17.312Z,20.26
2022-08-25T19:42:03.457Z,20.26
2022-08-25T19:44:48.510Z,20.21
2022-08-25T19:47:35.151Z,20.20
2022-08-25T19:50:21.357Z,20.14
2022-08-25T19:53:06.987Z,20.13
2022-08-25T19:55:53.010Z,20.03
2022-08-25T19:58:37.871Z,19.99
2022-08-25T20:01:23.487Z,19.96
2022-08-25T20:04:10.306Z,19.89
2022-08-25T20:06:55.841Z,19.89
2022-08-25T20:09:41.646Z,19.81
2022-08-25T20:12:30.291Z,19.88
2022-08-25T20:15:16.835Z,19.89
2022-08-25T20:18:01.962Z,19.80
2022-08-25T20:20:48.044Z,19.83
2022-08-25T20:23:52.450Z,19.79
2022-08-25T20:26:37.986Z,19.74
2022-08-25T20:29:26.385Z,19.72
2022-08-25T20:32:11.573Z,19.68
2022-08-25T20:34:56.977Z,19.65
2022-08-25T20:37:44.584Z,19.67
2022-08-25T20:40:30.719Z,19.64
2022-08-25T20:43:16.081Z,19.59
2022-08-25T20:46:01.928Z,19.57
2022-08-25T20:48:47.106Z,19.54
2022-08-25T20:51:34.125Z,19.52
2022-08-25T20:54:19.194Z,19.51
2022-08-25T20:57:04.814Z,19.53
2022-08-25T20:59:54.742Z,19.53
2022-08-25T21:02:39.783Z,19.53
2022-08-25T21:05:25.095Z,19.43
2022-08-25T21:08:10.945Z,19.36
2022-08-25T21:10:56.276Z,19.42
2022-08-25T21:13:42.043Z,19.37
2022-08-25T21:16:28.500Z,19.37
2022-08-25T21:19:16.041Z,19.37
2022-08-25T21:22:01.426Z,19.35
2022-08-25T21:24:46.930Z,19.32
2022-08-25T21:27:31.973Z,19.23
2022-08-25T21:30:17.242Z,19.23
2022-08-25T21:33:02.426Z,19.22
2022-08-25T21:35:47.837Z,19.20
2022-08-25T21:38:34.093Z,19.16
2022-08-25T21:41:23.490Z,19.16
2022-08-25T21:44:08.983Z,19.17
2022-08-25T21:46:54.826Z,19.14
2022-08-25T21:49:40.265Z,19.14
2022-08-25T21:52:25.142Z,19.06
2022-08-25T21:55:16.129Z,19.04
2022-08-25T21:58:01.650Z,18.92
2022-08-25T22:00:46.805Z,19.02
2022-08-25T22:03:32.125Z,19.03
2022-08-25T22:06:23.094Z,19.04
2022-08-25T22:09:12.443Z,19.01
2022-08-25T22:11:59.097Z,19.00
2022-08-25T22:14:44.771Z,18.94
2022-08-25T22:17:29.649Z,18.81
2022-08-25T22:20:17.539Z,18.95
2022-08-25T22:23:03.129Z,18.98
2022-08-25T22:25:48.396Z,18.90
2022-08-25T22:28:33.624Z,18.83
2022-08-25T22:31:20.882Z,18.92
2022-08-25T22:34:06.535Z,18.90
2022-08-25T22:36:51.578Z,18.91
2022-08-25T22:39:45.655Z,18.82
2022-08-25T22:42:31.335Z,18.88
2022-08-25T22:45:16.815Z,18.83
2022-08-25T22:48:03.949Z,18.73
2022-08-25T22:50:49.089Z,18.64
2022-08-25T22:53:34.397Z,18.56
2022-08-25T22:56:29.733Z,18.46
2022-08-25T22:59:15.359Z,18.39
2022-08-25T23:02:00.676Z,18.35
2022-08-25T23:04:45.985Z,18.35
2022-08-25T23:07:31.350Z,18.29
2022-08-25T23:10:16.555Z,18.13
2022-08-25T23:13:01.739Z,18.23
2022-08-25T23:15:52.129Z,18.23
2022-08-25T23:18:43.488Z,18.16
2022-08-25T23:21:47.791Z,18.06
2022-08-25T23:24:33.986Z,17.97
2022-08-25T23:27:21.341Z,17.94
2022-08-25T23:30:07.302Z,17.83
2022-08-25T23:32:54.542Z,17.81
2022-08-25T23:35:39.870Z,17.80
2022-08-25T23:38:24.991Z,17.81
2022-08-25T23:41:17.661Z,17.72
2022-08-25T23:44:02.853Z,17.72
2022-08-25T23:46:49.599Z,17.64
2022-08-25T23:49:34.780Z,17.51
2022-08-25T23:52:20.393Z,17.51
2022-08-25T23:55:06.305Z,17.47
2022-08-25T23:57:51.793Z,17.34
